createdAt,value
2017-08-11T00:00:17.152Z,16.84
2017-08-11T00:00:45.886Z,16.8
2017-08-11T00:01:14.321Z,16.83
2017-08-11T00:01:43.544Z,16.84
2017-08-11T00:02:12.557Z,16.84
2017-08-11T00:02:41.395Z,16.87
2017-08-11T00:03:09.959Z,16.79
2017-08-11T00:03:38.532Z,16.82
2017-08-11T00:04:07.193Z,16.79
2017-08-11T00:04:35.876Z,16.8
2017-08-11T00:05:04.550Z,16.83
2017-08-11T00:05:33.036Z,16.77
2017-08-11T00:06:01.482Z,16.79
2017-08-11T00:06:30.160Z,16.77
2017-08-11T00:06:58.871Z,16.76
2017-08-11T00:07:28.010Z,16.76
2017-08-11T00:07:56.499Z,16.77
2017-08-11T00:08:25.089Z,16.83
2017-08-11T00:08:53.749Z,16.8
2017-08-11T00:09:22.729Z,16.83
2017-08-11T00:09:51.399Z,16.76
2017-08-11T00:10:20.261Z,16.77
2017-08-11T00:10:49.016Z,16.86
2017-08-11T00:11:17.740Z,16.74
2017-08-11T00:11:46.735Z,16.74
2017-08-11T00:12:15.339Z,16.72
2017-08-11T00:12:43.972Z,16.72
2017-08-11T00:13:12.596Z,16.73
2017-08-11T00:13:41.623Z,16.64
2017-08-11T00:14:10.638Z,16.69
2017-08-11T00:14:39.468Z,16.65
2017-08-11T00:15:08.218Z,16.72
2017-08-11T00:15:36.883Z,16.58
2017-08-11T00:16:05.440Z,16.57
2017-08-11T00:16:33.981Z,16.57
2017-08-11T00:17:02.656Z,16.61
2017-08-11T00:17:31.302Z,16.59
2017-08-11T00:18:00.126Z,16.59
2017-08-11T00:18:28.707Z,16.62
2017-08-11T00:18:57.161Z,16.55
2017-08-11T00:19:26.194Z,16.58
2017-08-11T00:19:54.835Z,16.61
2017-08-11T00:20:23.511Z,16.58
2017-08-11T00:20:52.500Z,16.58
2017-08-11T00:21:21.104Z,16.62
2017-08-11T00:21:49.745Z,16.58
2017-08-11T00:22:18.298Z,16.65
2017-08-11T00:22:46.837Z,16.65
2017-08-11T00:23:15.495Z,16.65
2017-08-11T00:23:44.238Z,16.72
2017-08-11T00:24:12.863Z,16.74
2017-08-11T00:24:41.438Z,16.79
2017-08-11T00:25:10.011Z,16.83
2017-08-11T00:25:38.679Z,16.72
2017-08-11T00:26:07.259Z,16.87
2017-08-11T00:26:35.624Z,16.77
2017-08-11T00:27:04.374Z,16.82
2017-08-11T00:27:33.114Z,16.84
2017-08-11T00:28:01.662Z,16.84
2017-08-11T00:28:31.062Z,16.91
2017-08-11T00:28:59.612Z,16.86
2017-08-11T00:29:28.253Z,16.86
2017-08-11T00:29:56.709Z,16.86
2017-08-11T00:30:25.254Z,16.83
2017-08-11T00:30:53.892Z,16.77
2017-08-11T00:31:22.908Z,16.8
2017-08-11T00:31:51.624Z,16.76
2017-08-11T00:32:20.182Z,16.83
2017-08-11T00:32:48.729Z,16.82
2017-08-11T00:33:17.419Z,16.73
2017-08-11T00:33:45.864Z,16.74
2017-08-11T00:34:14.518Z,16.8
2017-08-11T00:34:43.155Z,16.73
2017-08-11T00:35:11.703Z,16.79
2017-08-11T00:35:40.256Z,16.73
2017-08-11T00:36:08.791Z,16.74
2017-08-11T00:36:37.338Z,16.74
2017-08-11T00:37:05.971Z,16.76
2017-08-11T00:37:34.334Z,16.82
2017-08-11T00:38:02.892Z,16.73
2017-08-11T00:38:31.462Z,16.73
2017-08-11T00:39:00.037Z,16.74
2017-08-11T00:39:29.036Z,16.72
2017-08-11T00:39:57.578Z,16.66
2017-08-11T00:40:26.314Z,16.72
2017-08-11T00:40:54.950Z,16.68
2017-08-11T00:41:24.103Z,16.68
2017-08-11T00:41:52.742Z,16.68
2017-08-11T00:42:21.409Z,16.73
2017-08-11T00:42:49.978Z,16.66
2017-08-11T00:43:18.604Z,16.72
2017-08-11T00:43:47.237Z,16.65
2017-08-11T00:44:15.810Z,16.74
2017-08-11T00:44:44.411Z,16.73
2017-08-11T00:45:13.021Z,16.72
2017-08-11T00:45:41.673Z,16.72
2017-08-11T00:46:10.305Z,16.68
2017-08-11T00:46:38.773Z,16.68
2017-08-11T00:47:07.401Z,16.65
2017-08-11T00:47:36.054Z,16.69
2017-08-11T00:48:04.696Z,16.66
2017-08-11T00:48:33.330Z,16.68
2017-08-11T00:49:01.897Z,16.64
2017-08-11T00:49:30.945Z,16.72
2017-08-11T00:49:59.490Z,16.69
2017-08-11T00:50:28.131Z,16.64
2017-08-11T00:50:56.755Z,16.72
2017-08-11T00:51:25.398Z,16.62
2017-08-11T00:51:53.956Z,16.57
2017-08-11T00:52:22.488Z,16.65
2017-08-11T00:52:51.026Z,16.61
2017-08-11T00:53:19.651Z,16.64
2017-08-11T00:53:48.223Z,16.55
2017-08-11T00:54:16.935Z,16.64
2017-08-11T00:54:45.570Z,16.5
2017-08-11T00:55:14.238Z,16.51
2017-08-11T00:55:42.883Z,16.58
2017-08-11T00:56:11.443Z,16.55
2017-08-11T00:56:40.092Z,16.5
2017-08-11T00:57:08.731Z,16.57
2017-08-11T00:57:37.376Z,16.55
2017-08-11T00:58:06.098Z,16.55
2017-08-11T00:58:34.677Z,16.54
2017-08-11T00:59:03.311Z,16.46
2017-08-11T00:59:31.954Z,16.51
2017-08-11T01:00:00.498Z,16.51
2017-08-11T01:00:29.097Z,16.47
2017-08-11T01:00:57.732Z,16.43
2017-08-11T01:01:26.377Z,16.47
2017-08-11T01:01:55.024Z,16.46
2017-08-11T01:02:23.719Z,16.47
2017-08-11T01:02:51.985Z,16.55
2017-08-11T01:03:20.542Z,16.5
2017-08-11T01:03:49.186Z,16.46
2017-08-11T01:04:17.751Z,16.54
2017-08-11T01:04:46.406Z,16.57
2017-08-11T01:05:14.764Z,16.54
2017-08-11T01:05:43.811Z,16.49
2017-08-11T01:06:44.930Z,16.5
2017-08-11T01:07:13.682Z,16.61
2017-08-11T01:07:42.329Z,16.59
2017-08-11T01:08:11.681Z,16.58
2017-08-11T01:08:40.331Z,16.59
2017-08-11T01:09:08.794Z,16.72
2017-08-11T01:09:37.580Z,16.61
2017-08-11T01:10:06.113Z,16.66
2017-08-11T01:10:34.743Z,16.66
2017-08-11T01:11:03.489Z,16.73
2017-08-11T01:11:32.349Z,16.74
2017-08-11T01:12:01.209Z,16.73
2017-08-11T01:12:29.836Z,16.86
2017-08-11T01:12:58.528Z,16.74
2017-08-11T01:13:27.157Z,16.82
2017-08-11T01:13:55.815Z,16.87
2017-08-11T01:14:24.443Z,16.82
2017-08-11T01:14:53.117Z,16.79
2017-08-11T01:15:21.762Z,16.79
2017-08-11T01:15:50.214Z,16.76
2017-08-11T01:16:18.861Z,16.79
2017-08-11T01:16:47.514Z,16.74
2017-08-11T01:17:16.141Z,16.79
2017-08-11T01:17:44.790Z,16.76
2017-08-11T01:18:13.322Z,16.72
2017-08-11T01:18:41.871Z,16.68
2017-08-11T01:19:10.580Z,16.69
2017-08-11T01:19:39.282Z,16.66
2017-08-11T01:20:08.001Z,16.68
2017-08-11T01:20:36.646Z,16.66
2017-08-11T01:21:05.272Z,16.65
2017-08-11T01:21:33.893Z,16.69
2017-08-11T01:22:02.463Z,16.68
2017-08-11T01:22:31.600Z,16.72
2017-08-11T01:23:00.219Z,16.72
2017-08-11T01:23:28.756Z,16.72
2017-08-11T01:23:57.386Z,16.68
2017-08-11T01:24:26.039Z,16.68
2017-08-11T01:24:54.665Z,16.72
2017-08-11T01:25:23.580Z,16.68
2017-08-11T01:25:52.228Z,16.74
2017-08-11T01:26:20.906Z,16.72
2017-08-11T01:26:49.475Z,16.76
2017-08-11T01:27:18.025Z,16.72
2017-08-11T01:27:46.631Z,16.77
2017-08-11T01:28:16.036Z,16.73
2017-08-11T01:28:44.593Z,16.82
2017-08-11T01:29:13.159Z,16.76
2017-08-11T01:29:41.806Z,16.79
2017-08-11T01:30:10.347Z,16.73
2017-08-11T01:30:38.889Z,16.83
2017-08-11T01:31:07.527Z,16.74
2017-08-11T01:31:35.978Z,16.74
2017-08-11T01:32:04.612Z,16.74
2017-08-11T01:32:33.173Z,16.82
2017-08-11T01:33:01.704Z,16.82
2017-08-11T01:33:30.340Z,16.76
2017-08-11T01:33:58.977Z,16.74
2017-08-11T01:34:27.510Z,16.79
2017-08-11T01:34:56.179Z,16.69
2017-08-11T01:35:25.649Z,16.69
2017-08-11T01:35:54.298Z,16.66
2017-08-11T01:36:22.668Z,16.66
2017-08-11T01:36:51.439Z,16.62
2017-08-11T01:37:19.994Z,16.66
2017-08-11T01:37:48.627Z,16.59
2017-08-11T01:38:17.333Z,16.61
2017-08-11T01:38:46.364Z,16.59
2017-08-11T01:39:15.006Z,16.64
2017-08-11T01:39:43.638Z,16.66
2017-08-11T01:40:12.274Z,16.55
2017-08-11T01:40:40.837Z,16.57
2017-08-11T01:41:09.295Z,16.55
2017-08-11T01:41:37.890Z,16.55
2017-08-11T01:42:06.330Z,16.62
2017-08-11T01:42:34.970Z,16.65
2017-08-11T01:43:03.600Z,16.58
2017-08-11T01:43:32.247Z,16.58
2017-08-11T01:44:00.785Z,16.57
2017-08-11T01:44:29.386Z,16.61
2017-08-11T01:44:58.029Z,16.61
2017-08-11T01:45:26.656Z,16.62
2017-08-11T01:45:55.175Z,16.59
2017-08-11T01:46:23.808Z,16.59
2017-08-11T01:46:52.446Z,16.68
2017-08-11T01:47:21.091Z,16.57
2017-08-11T01:47:49.645Z,16.55
2017-08-11T01:48:18.190Z,16.61
2017-08-11T01:48:46.816Z,16.55
2017-08-11T01:49:15.598Z,16.61
2017-08-11T01:49:44.226Z,16.58
2017-08-11T01:50:12.880Z,16.65
2017-08-11T01:50:41.509Z,16.61
2017-08-11T01:51:10.126Z,16.57
2017-08-11T01:51:38.781Z,16.58
2017-08-11T01:52:07.407Z,16.62
2017-08-11T01:52:35.939Z,16.51
2017-08-11T01:53:04.474Z,16.61
2017-08-11T01:53:33.061Z,16.58
2017-08-11T01:54:01.702Z,16.57
2017-08-11T01:54:30.169Z,16.58
2017-08-11T01:54:58.801Z,16.62
2017-08-11T01:55:27.345Z,16.64
2017-08-11T01:55:55.984Z,16.61
2017-08-11T01:56:24.642Z,16.62
2017-08-11T01:56:53.296Z,16.61
2017-08-11T01:57:21.933Z,16.64
2017-08-11T01:57:50.560Z,16.62
2017-08-11T01:58:19.193Z,16.58
2017-08-11T01:58:48.312Z,16.62
2017-08-11T01:59:16.855Z,16.61
2017-08-11T01:59:45.382Z,16.58
2017-08-11T02:00:13.918Z,16.65
2017-08-11T02:00:42.784Z,16.69
2017-08-11T02:01:11.337Z,16.68
2017-08-11T02:01:39.908Z,16.69
2017-08-11T02:02:08.541Z,16.74
2017-08-11T02:02:37.078Z,16.76
2017-08-11T02:03:05.708Z,16.73
2017-08-11T02:03:34.282Z,16.74
2017-08-11T02:04:02.908Z,16.79
2017-08-11T02:04:31.366Z,16.76
2017-08-11T02:04:59.910Z,16.76
2017-08-11T02:05:28.537Z,16.72
2017-08-11T02:05:57.084Z,16.76
2017-08-11T02:06:25.716Z,16.77
2017-08-11T02:06:54.365Z,16.72
2017-08-11T02:07:22.997Z,16.73
2017-08-11T02:07:51.477Z,16.74
2017-08-11T02:08:20.092Z,16.74
2017-08-11T02:08:49.259Z,16.76
2017-08-11T02:09:17.794Z,16.72
2017-08-11T02:09:46.345Z,16.69
2017-08-11T02:10:15.040Z,16.73
2017-08-11T02:10:43.764Z,16.72
2017-08-11T02:11:12.247Z,16.69
2017-08-11T02:11:40.878Z,16.77
2017-08-11T02:12:09.434Z,16.8
2017-08-11T02:12:37.984Z,16.73
2017-08-11T02:13:06.947Z,16.77
2017-08-11T02:13:35.575Z,16.76
2017-08-11T02:14:04.114Z,16.82
2017-08-11T02:14:32.649Z,16.87
2017-08-11T02:15:01.307Z,16.89
2017-08-11T02:15:29.933Z,16.89
2017-08-11T02:15:58.560Z,16.86
2017-08-11T02:16:27.198Z,16.91
2017-08-11T02:16:55.742Z,16.89
2017-08-11T02:17:24.293Z,16.86
2017-08-11T02:17:52.934Z,16.84
2017-08-11T02:18:21.562Z,16.87
2017-08-11T02:18:50.140Z,16.76
2017-08-11T02:19:18.889Z,16.76
2017-08-11T02:19:47.524Z,16.76
2017-08-11T02:20:16.636Z,16.77
2017-08-11T02:20:45.847Z,16.72
2017-08-11T02:21:14.395Z,16.66
2017-08-11T02:21:43.043Z,16.62
2017-08-11T02:22:11.687Z,16.68
2017-08-11T02:22:40.323Z,16.69
2017-08-11T02:23:08.952Z,16.69
2017-08-11T02:23:37.598Z,16.72
2017-08-11T02:24:06.305Z,16.69
2017-08-11T02:24:34.931Z,16.58
2017-08-11T02:25:03.498Z,16.64
2017-08-11T02:25:32.138Z,16.61
2017-08-11T02:26:00.796Z,16.57
2017-08-11T02:26:29.449Z,16.68
2017-08-11T02:26:58.009Z,16.58
2017-08-11T02:27:26.571Z,16.65
2017-08-11T02:27:55.267Z,16.61
2017-08-11T02:28:23.721Z,16.65
2017-08-11T02:28:52.391Z,16.61
2017-08-11T02:29:21.035Z,16.64
2017-08-11T02:29:49.678Z,16.55
2017-08-11T02:30:18.222Z,16.55
2017-08-11T02:30:46.771Z,16.57
2017-08-11T02:31:15.248Z,16.41
2017-08-11T02:31:43.874Z,16.5
2017-08-11T02:32:12.505Z,16.41
2017-08-11T02:32:41.049Z,16.5
2017-08-11T02:33:09.718Z,16.36
2017-08-11T02:33:38.254Z,16.49
2017-08-11T02:34:06.809Z,16.32
2017-08-11T02:34:35.606Z,16.29
2017-08-11T02:35:04.239Z,16.32
2017-08-11T02:35:32.783Z,16.31
2017-08-11T02:36:01.424Z,16.32
2017-08-11T02:36:30.591Z,16.31
2017-08-11T02:36:59.221Z,16.37
2017-08-11T02:37:27.847Z,16.34
2017-08-11T02:37:56.387Z,16.34
2017-08-11T02:38:25.061Z,16.29
2017-08-11T02:38:53.695Z,16.34
2017-08-11T02:39:22.321Z,16.31
2017-08-11T02:39:50.941Z,16.29
2017-08-11T02:40:19.495Z,16.4
2017-08-11T02:40:48.168Z,16.4
2017-08-11T02:41:16.790Z,16.29
2017-08-11T02:41:45.342Z,16.34
2017-08-11T02:42:13.890Z,16.39
2017-08-11T02:42:42.472Z,16.34
2017-08-11T02:43:11.130Z,16.32
2017-08-11T02:43:39.782Z,16.4
2017-08-11T02:44:08.435Z,16.32
2017-08-11T02:44:37.289Z,16.26
2017-08-11T02:45:05.832Z,16.4
2017-08-11T02:45:34.388Z,16.37
2017-08-11T02:46:03.039Z,16.31
2017-08-11T02:46:31.677Z,16.31
2017-08-11T02:47:00.222Z,16.4
2017-08-11T02:47:28.767Z,16.32
2017-08-11T02:47:57.431Z,16.26
2017-08-11T02:48:26.062Z,16.4
2017-08-11T02:48:54.630Z,16.32
2017-08-11T02:49:23.249Z,16.41
2017-08-11T02:49:51.941Z,16.32
2017-08-11T02:50:20.308Z,16.34
2017-08-11T02:50:48.875Z,16.29
2017-08-11T02:51:17.501Z,16.43
2017-08-11T02:51:46.128Z,16.37
2017-08-11T02:52:14.673Z,16.39
2017-08-11T02:52:43.306Z,16.32
2017-08-11T02:53:11.869Z,16.32
2017-08-11T02:53:40.495Z,16.34
2017-08-11T02:54:08.966Z,16.43
2017-08-11T02:54:37.604Z,16.32
2017-08-11T02:55:06.137Z,16.31
2017-08-11T02:55:34.777Z,16.39
2017-08-11T02:56:03.318Z,16.29
2017-08-11T02:56:31.854Z,16.31
2017-08-11T02:57:00.486Z,16.32
2017-08-11T02:57:29.130Z,16.29
2017-08-11T02:57:57.775Z,16.36
2017-08-11T02:58:26.418Z,16.31
2017-08-11T02:58:54.984Z,16.34
2017-08-11T02:59:23.640Z,16.36
2017-08-11T02:59:52.281Z,16.37
2017-08-11T03:00:20.978Z,16.34
2017-08-11T03:00:49.528Z,16.36
2017-08-11T03:01:18.556Z,16.32
2017-08-11T03:01:47.211Z,16.32
2017-08-11T03:02:15.758Z,16.31
2017-08-11T03:02:44.314Z,16.31
2017-08-11T03:03:12.977Z,16.31
2017-08-11T03:03:41.525Z,16.31
2017-08-11T03:04:09.967Z,16.28
2017-08-11T03:04:38.596Z,16.29
2017-08-11T03:05:07.236Z,16.31
2017-08-11T03:05:35.715Z,16.28
2017-08-11T03:06:04.366Z,16.25
2017-08-11T03:06:33.496Z,16.26
2017-08-11T03:07:01.952Z,16.26
2017-08-11T03:07:30.574Z,16.22
2017-08-11T03:07:59.210Z,16.21
2017-08-11T03:08:27.849Z,16.24
2017-08-11T03:08:56.412Z,16.13
2017-08-11T03:09:24.946Z,16.13
2017-08-11T03:09:53.573Z,16.12
2017-08-11T03:10:22.115Z,16.16
2017-08-11T03:10:50.777Z,16.21
2017-08-11T03:11:19.312Z,16.21
2017-08-11T03:11:47.947Z,16.18
2017-08-11T03:12:16.592Z,16.1
2017-08-11T03:12:45.226Z,16.12
2017-08-11T03:13:13.782Z,16.06
2017-08-11T03:13:42.319Z,16.03
2017-08-11T03:14:10.951Z,16.1
2017-08-11T03:14:39.914Z,16.12
2017-08-11T03:15:08.657Z,16.08
2017-08-11T03:15:37.287Z,16.13
2017-08-11T03:16:05.837Z,16.03
2017-08-11T03:16:34.475Z,16.03
2017-08-11T03:17:03.006Z,16.08
2017-08-11T03:17:31.637Z,16.05
2017-08-11T03:18:00.308Z,15.99
2017-08-11T03:18:28.870Z,16.02
2017-08-11T03:18:57.419Z,15.99
2017-08-11T03:19:26.112Z,16
2017-08-11T03:19:54.740Z,15.99
2017-08-11T03:20:23.356Z,16.02
2017-08-11T03:20:51.987Z,16.06
2017-08-11T03:21:21.033Z,15.98
2017-08-11T03:21:49.691Z,16.05
2017-08-11T03:22:18.228Z,16.05
2017-08-11T03:22:46.758Z,16.05
2017-08-11T03:23:15.402Z,16.08
2017-08-11T03:23:44.037Z,16.06
2017-08-11T03:24:12.401Z,16.13
2017-08-11T03:24:41.518Z,16.03
2017-08-11T03:25:10.150Z,16.06
2017-08-11T03:25:38.699Z,16.09
2017-08-11T03:26:07.607Z,16.08
2017-08-11T03:26:36.741Z,16.05
2017-08-11T03:27:05.386Z,16.05
2017-08-11T03:27:34.262Z,16.06
2017-08-11T03:28:02.910Z,16.13
2017-08-11T03:28:31.424Z,16.08
2017-08-11T03:29:00.048Z,15.99
2017-08-11T03:29:28.685Z,16.03
2017-08-11T03:29:57.305Z,16.06
2017-08-11T03:30:25.855Z,16.02
2017-08-11T03:30:54.395Z,16.06
2017-08-11T03:31:22.935Z,16.06
2017-08-11T03:31:51.567Z,16.06
2017-08-11T03:32:20.208Z,16.05
2017-08-11T03:32:48.844Z,16.05
2017-08-11T03:33:17.515Z,16.06
2017-08-11T03:33:46.154Z,16.05
2017-08-11T03:34:14.792Z,16.05
2017-08-11T03:34:43.339Z,16.08
2017-08-11T03:35:11.989Z,16.02
2017-08-11T03:35:40.525Z,16
2017-08-11T03:36:09.077Z,16
2017-08-11T03:36:37.630Z,16.03
2017-08-11T03:37:06.289Z,16.02
2017-08-11T03:37:34.857Z,15.99
2017-08-11T03:38:03.485Z,15.98
2017-08-11T03:38:32.134Z,15.94
2017-08-11T03:39:00.780Z,15.92
2017-08-11T03:39:29.340Z,15.92
2017-08-11T03:39:58.460Z,15.92
2017-08-11T03:40:27.039Z,15.9
2017-08-11T03:40:55.586Z,15.96
2017-08-11T03:41:24.167Z,15.96
2017-08-11T03:41:52.876Z,15.92
2017-08-11T03:42:21.423Z,15.99
2017-08-11T03:42:49.978Z,15.96
2017-08-11T03:43:18.617Z,15.96
2017-08-11T03:43:47.208Z,15.96
2017-08-11T03:44:15.657Z,15.96
2017-08-11T03:44:44.282Z,15.94
2017-08-11T03:45:12.815Z,15.96
2017-08-11T03:45:41.442Z,15.91
2017-08-11T03:46:10.067Z,15.96
2017-08-11T03:46:38.598Z,15.88
2017-08-11T03:47:07.169Z,15.98
2017-08-11T03:47:35.801Z,15.85
2017-08-11T03:48:04.431Z,15.84
2017-08-11T03:48:33.065Z,15.91
2017-08-11T03:49:01.694Z,15.9
2017-08-11T03:49:30.487Z,15.98
2017-08-11T03:49:59.128Z,15.96
2017-08-11T03:50:28.481Z,15.96
2017-08-11T03:50:57.120Z,16
2017-08-11T03:51:26.053Z,15.94
2017-08-11T03:51:54.606Z,15.94
2017-08-11T03:52:23.071Z,16.05
2017-08-11T03:52:51.695Z,15.91
2017-08-11T03:53:20.246Z,16.02
2017-08-11T03:53:48.866Z,15.94
2017-08-11T03:54:17.493Z,15.98
2017-08-11T03:54:46.133Z,16.02
2017-08-11T03:55:14.669Z,16.03
2017-08-11T03:55:43.304Z,16
2017-08-11T03:56:12.488Z,16.02
2017-08-11T03:56:41.035Z,15.91
2017-08-11T03:57:09.687Z,15.99
2017-08-11T03:57:38.317Z,16
2017-08-11T03:58:06.771Z,15.9
2017-08-11T03:58:35.264Z,15.98
2017-08-11T03:59:03.794Z,15.96
2017-08-11T03:59:32.428Z,16.02
2017-08-11T04:00:01.100Z,15.88
2017-08-11T04:00:29.748Z,15.94
2017-08-11T04:00:58.397Z,15.94
2017-08-11T04:01:27.046Z,15.94
2017-08-11T04:01:55.644Z,15.91
2017-08-11T04:02:24.786Z,15.88
2017-08-11T04:02:53.428Z,15.92
2017-08-11T04:03:21.888Z,15.91
2017-08-11T04:03:50.228Z,15.88
2017-08-11T04:04:18.765Z,15.9
2017-08-11T04:04:47.397Z,15.98
2017-08-11T04:05:16.020Z,15.88
2017-08-11T04:05:44.661Z,15.85
2017-08-11T04:06:13.206Z,15.91
2017-08-11T04:06:41.872Z,15.91
2017-08-11T04:07:12.486Z,15.84
2017-08-11T04:07:43.798Z,15.92
2017-08-11T04:08:12.446Z,15.83
2017-08-11T04:08:41.083Z,15.84
2017-08-11T04:09:09.736Z,15.78
2017-08-11T04:09:38.534Z,15.84
2017-08-11T04:10:07.168Z,15.85
2017-08-11T04:10:35.796Z,15.91
2017-08-11T04:11:04.448Z,15.8
2017-08-11T04:11:33.042Z,15.84
2017-08-11T04:12:01.722Z,15.87
2017-08-11T04:12:30.260Z,15.75
2017-08-11T04:12:58.911Z,15.81
2017-08-11T04:13:27.464Z,15.84
2017-08-11T04:13:55.916Z,15.73
2017-08-11T04:14:24.777Z,15.73
2017-08-11T04:14:53.394Z,15.83
2017-08-11T04:15:22.026Z,15.78
2017-08-11T04:15:50.802Z,15.72
2017-08-11T04:16:19.355Z,15.75
2017-08-11T04:16:47.999Z,15.69
2017-08-11T04:17:16.586Z,15.7
2017-08-11T04:17:44.984Z,15.69
2017-08-11T04:18:13.806Z,15.72
2017-08-11T04:18:42.465Z,15.84
2017-08-11T04:19:10.909Z,15.73
2017-08-11T04:19:39.589Z,15.84
2017-08-11T04:20:08.204Z,15.88
2017-08-11T04:20:36.801Z,15.84
2017-08-11T04:21:05.335Z,15.83
2017-08-11T04:21:33.699Z,15.84
2017-08-11T04:22:02.436Z,15.83
2017-08-11T04:22:31.060Z,15.91
2017-08-11T04:22:59.523Z,15.84
2017-08-11T04:23:28.170Z,15.88
2017-08-11T04:23:56.707Z,15.81
2017-08-11T04:24:25.244Z,15.96
2017-08-11T04:24:53.925Z,15.9
2017-08-11T04:25:22.453Z,15.8
2017-08-11T04:25:50.994Z,15.81
2017-08-11T04:26:19.530Z,15.78
2017-08-11T04:26:48.164Z,15.88
2017-08-11T04:27:16.792Z,15.83
2017-08-11T04:27:45.334Z,15.85
2017-08-11T04:28:13.857Z,15.81
2017-08-11T04:28:42.481Z,15.8
2017-08-11T04:29:11.112Z,15.76
2017-08-11T04:29:39.666Z,15.75
2017-08-11T04:30:08.309Z,15.69
2017-08-11T04:30:36.946Z,15.76
2017-08-11T04:31:05.571Z,15.73
2017-08-11T04:31:34.213Z,15.67
2017-08-11T04:32:02.842Z,15.67
2017-08-11T04:32:31.381Z,15.75
2017-08-11T04:33:00.043Z,15.67
2017-08-11T04:33:28.701Z,15.69
2017-08-11T04:33:57.407Z,15.65
2017-08-11T04:34:26.075Z,15.65
2017-08-11T04:34:54.702Z,15.7
2017-08-11T04:35:23.284Z,15.65
2017-08-11T04:35:51.968Z,15.6
2017-08-11T04:36:20.512Z,15.62
2017-08-11T04:36:49.287Z,15.72
2017-08-11T04:37:18.005Z,15.62
2017-08-11T04:37:46.634Z,15.55
2017-08-11T04:38:15.186Z,15.57
2017-08-11T04:38:43.755Z,15.59
2017-08-11T04:39:12.382Z,15.65
2017-08-11T04:39:40.865Z,15.57
2017-08-11T04:40:09.685Z,15.67
2017-08-11T04:40:38.252Z,15.55
2017-08-11T04:41:07.507Z,15.6
2017-08-11T04:41:36.176Z,15.59
2017-08-11T04:42:04.796Z,15.54
2017-08-11T04:42:33.440Z,15.66
2017-08-11T04:43:02.090Z,15.67
2017-08-11T04:43:30.723Z,15.6
2017-08-11T04:43:59.366Z,15.63
2017-08-11T04:44:28.007Z,15.65
2017-08-11T04:44:56.561Z,15.63
2017-08-11T04:45:25.101Z,15.67
2017-08-11T04:45:53.738Z,15.62
2017-08-11T04:46:22.282Z,15.63
2017-08-11T04:46:50.839Z,15.57
2017-08-11T04:47:19.474Z,15.55
2017-08-11T04:47:48.041Z,15.57
2017-08-11T04:48:16.668Z,15.62
2017-08-11T04:48:45.300Z,15.59
2017-08-11T04:49:13.841Z,15.52
2017-08-11T04:49:42.758Z,15.51
2017-08-11T04:50:11.380Z,15.45
2017-08-11T04:50:40.420Z,15.51
2017-08-11T04:51:09.096Z,15.48
2017-08-11T04:51:37.730Z,15.5
2017-08-11T04:52:06.359Z,15.48
2017-08-11T04:52:34.823Z,15.54
2017-08-11T04:53:03.454Z,15.51
2017-08-11T04:53:32.085Z,15.55
2017-08-11T04:54:00.723Z,15.59
2017-08-11T04:54:29.355Z,15.54
2017-08-11T04:54:58.489Z,15.51
2017-08-11T04:55:27.113Z,15.6
2017-08-11T04:55:55.656Z,15.55
2017-08-11T04:56:24.196Z,15.54
2017-08-11T04:56:52.659Z,15.57
2017-08-11T04:57:21.288Z,15.5
2017-08-11T04:57:49.851Z,15.52
2017-08-11T04:58:18.496Z,15.51
2017-08-11T04:58:47.131Z,15.5
2017-08-11T04:59:15.763Z,15.48
2017-08-11T04:59:44.324Z,15.48
2017-08-11T05:00:12.999Z,15.47
2017-08-11T05:00:41.585Z,15.51
2017-08-11T05:01:10.048Z,15.51
2017-08-11T05:01:38.595Z,15.51
2017-08-11T05:02:07.147Z,15.6
2017-08-11T05:02:35.800Z,15.48
2017-08-11T05:03:04.357Z,15.55
2017-08-11T05:03:33.105Z,15.55
2017-08-11T05:04:01.765Z,15.57
2017-08-11T05:04:30.326Z,15.62
2017-08-11T05:04:58.775Z,15.51
2017-08-11T05:05:27.415Z,15.59
2017-08-11T05:05:55.887Z,15.57
2017-08-11T05:06:24.406Z,15.5
2017-08-11T05:06:52.958Z,15.67
2017-08-11T05:07:21.498Z,15.57
2017-08-11T05:07:50.132Z,15.63
2017-08-11T05:08:18.708Z,15.63
2017-08-11T05:08:47.345Z,15.62
2017-08-11T05:09:15.928Z,15.6
2017-08-11T05:09:44.570Z,15.57
2017-08-11T05:10:13.102Z,15.62
2017-08-11T05:10:41.733Z,15.67
2017-08-11T05:11:10.274Z,15.69
2017-08-11T05:11:38.922Z,15.66
2017-08-11T05:12:07.458Z,15.63
2017-08-11T05:12:36.091Z,15.52
2017-08-11T05:13:04.618Z,15.54
2017-08-11T05:13:33.058Z,15.57
2017-08-11T05:14:01.592Z,15.57
2017-08-11T05:14:30.138Z,15.54
2017-08-11T05:14:59.012Z,15.65
2017-08-11T05:15:28.141Z,15.69
2017-08-11T05:15:56.687Z,15.57
2017-08-11T05:16:39.638Z,15.65
2017-08-11T05:17:08.215Z,15.59
2017-08-11T05:17:36.748Z,15.66
2017-08-11T05:18:05.388Z,15.62
2017-08-11T05:18:34.111Z,15.67
2017-08-11T05:19:02.655Z,15.62
2017-08-11T05:19:31.320Z,15.54
2017-08-11T05:20:00.170Z,15.59
2017-08-11T05:20:28.817Z,15.65
2017-08-11T05:20:57.457Z,15.69
2017-08-11T05:21:26.150Z,15.65
2017-08-11T05:21:55.017Z,15.52
2017-08-11T05:22:54.895Z,15.57
2017-08-11T05:23:23.536Z,15.51
2017-08-11T05:23:52.076Z,15.57
2017-08-11T05:24:20.717Z,15.57
2017-08-11T05:24:49.595Z,15.54
2017-08-11T05:25:18.235Z,15.51
2017-08-11T05:25:46.859Z,15.54
2017-08-11T05:26:15.497Z,15.5
2017-08-11T05:26:44.128Z,15.45
2017-08-11T05:27:12.755Z,15.51
2017-08-11T05:27:41.368Z,15.48
2017-08-11T05:28:10.007Z,15.39
2017-08-11T05:28:38.632Z,15.39
2017-08-11T05:29:07.257Z,15.44
2017-08-11T05:29:35.711Z,15.48
2017-08-11T05:30:04.838Z,15.51
2017-08-11T05:30:33.278Z,15.51
2017-08-11T05:31:01.833Z,15.48
2017-08-11T05:31:30.457Z,15.5
2017-08-11T05:31:59.008Z,15.55
2017-08-11T05:32:27.642Z,15.52
2017-08-11T05:32:55.995Z,15.44
2017-08-11T05:33:24.691Z,15.35
2017-08-11T05:33:53.316Z,15.44
2017-08-11T05:34:21.996Z,15.48
2017-08-11T05:34:50.564Z,15.41
2017-08-11T05:35:19.097Z,15.44
2017-08-11T05:35:47.815Z,15.36
2017-08-11T05:36:16.458Z,15.41
2017-08-11T05:36:44.989Z,15.39
2017-08-11T05:37:13.646Z,15.36
2017-08-11T05:37:42.291Z,15.41
2017-08-11T05:38:10.835Z,15.37
2017-08-11T05:38:39.466Z,15.36
2017-08-11T05:39:08.140Z,15.32
2017-08-11T05:39:36.690Z,15.37
2017-08-11T05:40:05.417Z,15.36
2017-08-11T05:40:33.964Z,15.44
2017-08-11T05:41:02.593Z,15.5
2017-08-11T05:41:31.235Z,15.48
2017-08-11T05:41:59.869Z,15.37
2017-08-11T05:42:28.511Z,15.48
2017-08-11T05:42:57.060Z,15.48
2017-08-11T05:43:25.726Z,15.51
2017-08-11T05:43:54.392Z,15.52
2017-08-11T05:44:22.937Z,15.5
2017-08-11T05:44:51.593Z,15.54
2017-08-11T05:45:20.235Z,15.54
2017-08-11T05:45:48.892Z,15.47
2017-08-11T05:46:17.537Z,15.54
2017-08-11T05:46:46.077Z,15.57
2017-08-11T05:47:14.616Z,15.51
2017-08-11T05:47:43.237Z,15.52
2017-08-11T05:48:11.694Z,15.54
2017-08-11T05:48:40.837Z,15.54
2017-08-11T05:49:09.372Z,15.51
2017-08-11T05:49:37.923Z,15.5
2017-08-11T05:50:06.792Z,15.44
2017-08-11T05:50:35.348Z,15.45
2017-08-11T05:51:03.988Z,15.43
2017-08-11T05:51:32.449Z,15.41
2017-08-11T05:52:01.071Z,15.43
2017-08-11T05:52:29.609Z,15.41
2017-08-11T05:52:58.264Z,15.43
2017-08-11T05:53:26.885Z,15.44
2017-08-11T05:53:55.513Z,15.5
2017-08-11T05:54:24.172Z,15.45
2017-08-11T05:54:52.708Z,15.43
2017-08-11T05:55:21.166Z,15.43
2017-08-11T05:55:49.821Z,15.45
2017-08-11T05:56:18.452Z,15.47
2017-08-11T05:56:46.993Z,15.41
2017-08-11T05:57:15.624Z,15.41
2017-08-11T05:57:44.274Z,15.44
2017-08-11T05:58:12.922Z,15.39
2017-08-11T05:58:41.365Z,15.37
2017-08-11T05:59:09.995Z,15.41
2017-08-11T05:59:38.560Z,15.37
2017-08-11T06:00:07.292Z,15.43
2017-08-11T06:00:35.827Z,15.37
2017-08-11T06:01:04.363Z,15.39
2017-08-11T06:01:32.895Z,15.39
2017-08-11T06:02:01.430Z,15.43
2017-08-11T06:02:30.068Z,15.45
2017-08-11T06:02:58.707Z,15.43
2017-08-11T06:03:27.343Z,15.43
2017-08-11T06:03:55.804Z,15.41
2017-08-11T06:04:24.273Z,15.32
2017-08-11T06:04:52.893Z,15.45
2017-08-11T06:05:21.513Z,15.37
2017-08-11T06:05:50.159Z,15.36
2017-08-11T06:06:18.717Z,15.44
2017-08-11T06:06:47.351Z,15.39
2017-08-11T06:07:15.979Z,15.41
2017-08-11T06:07:44.605Z,15.43
2017-08-11T06:08:13.151Z,15.41
2017-08-11T06:08:41.703Z,15.44
2017-08-11T06:09:10.332Z,15.39
2017-08-11T06:09:38.868Z,15.37
2017-08-11T06:10:07.432Z,15.39
2017-08-11T06:10:35.971Z,15.37
2017-08-11T06:11:04.597Z,15.35